Time;durP1;ratioP1;P1;durP2;ratioP2;P2;SDS_P1;SDS_P2;PMS_P1;PMS_P2;Temp;Humidity;BMP_temperature;BMP_pressure;BME280_temperature;BME280_humidity;BME280_pressure;Samples;Min_cycle;Max_cycle;Signal;HPM_P1;HPM_P2
2023/04/08 00:00:52;;;;;;;;;;;;;;;;;;4982429;28;89098;-64
2023/04/08 00:03:18;;;;;;;;;;;;;;;;;;4989520;28;89786;-59
2023/04/08 00:05:43;;;;;;;;;;;;;;;;;;4989355;28;89181;-59
2023/04/08 00:08:08;;;;;;;;;;;;;;;;;;4992273;28;89572;-60
2023/04/08 00:10:33;;;;;;;;;;;;;;;;;;4989279;28;89473;-60
2023/04/08 00:12:59;;;;;;;;;;;;;;;;;;4975573;28;89520;-59
2023/04/08 00:15:25;;;;;;;;;;;;;;;;;;4969700;28;90235;-60
2023/04/08 00:17:52;;;;;;;;;;;;;;;;;;4968561;28;89035;-60
2023/04/08 00:20:17;;;;;;;;;;;;;;;;;;4968595;28;90187;-58
2023/04/08 00:22:42;;;;;;;;;;;;;;;;;;4949765;28;89754;-60
2023/04/08 00:25:08;;;;;;;;;;;;;;;;;;4950482;28;89093;-59
2023/04/08 00:27:33;;;;;;;;;;;;;;;;;;4969272;28;89904;-63
2023/04/08 00:30:02;;;;;;;;;;;;;;;;;;4970573;28;89479;-61
2023/04/08 00:32:28;;;;;;;;;;;;;;;;;;4969277;28;89685;-60
2023/04/08 00:34:53;;;;;;;;;;;;;;;;;;4967247;28;92370;-59
2023/04/08 00:37:18;;;;;;;;;;;;;;;;;;4968949;28;90531;-59
2023/04/08 00:39:43;;;;;;;;;;;;;;;;;;4969056;28;90478;-60
2023/04/08 00:42:09;;;;;;;;;;;;;;;;;;4968457;28;89945;-58
2023/04/08 00:44:34;;;;;;;;;;;;;;;;;;4968101;28;90454;-58
2023/04/08 00:46:59;;;;;;;;;;;;;;;;;;4969110;28;90627;-61
2023/04/08 00:49:25;;;;;;;;;;;;;;;;;;4969209;28;90375;-59
2023/04/08 00:51:50;;;;;;;;;;;;;;;;;;4971429;28;89533;-59
2023/04/08 00:54:16;;;;;;;;;;;;;;;;;;4969507;28;90249;-57
2023/04/08 00:56:42;;;;;;;;;;;;;;;;;;4969201;28;89359;-62
2023/04/08 00:59:07;;;;;;;;;;;;;;;;;;4968439;28;89842;-58
2023/04/08 01:01:51;;;;;;;;;;;;;;;;;;4968314;28;90272;-65
2023/04/08 01:04:16;;;;;;;;;;;;;;;;;;4968863;28;89037;-62
2023/04/08 01:06:58;;;;;;;;;;;;;;;;;;4968926;28;89638;-59
2023/04/08 01:09:26;;;;;;;;;;;;;;;;;;4968538;28;89967;-58
2023/04/08 01:11:52;;;;;;;;;;;;;;;;;;4967605;28;89059;-58
2023/04/08 01:14:22;;;;;;;;;;;;;;;;;;4971141;28;90403;-60
2023/04/08 01:16:47;;;;;;;;;;;;;;;;;;4968294;28;89316;-58
2023/04/08 01:19:30;;;;;;;;;;;;;;;;;;4967985;28;90175;-62
2023/04/08 01:22:00;;;;;;;;;;;;;;;;;;4968199;28;90345;-59
2023/04/08 01:24:28;;;;;;;;;;;;;;;;;;4968542;28;89512;-59
2023/04/08 01:26:56;;;;;;;;;;;;;;;;;;4967931;28;89804;-60
2023/04/08 01:29:21;;;;;;;;;;;;;;;;;;4968095;28;89273;-62
2023/04/08 01:31:47;;;;;;;;;;;;;;;;;;4968497;28;88933;-58
2023/04/08 01:34:14;;;;;;;;;;;;;;;;;;4967019;28;90750;-58
2023/04/08 01:36:40;;;;;;;;;;;;;;;;;;4968462;28;89437;-60
2023/04/08 01:39:06;;;;;;;;;;;;;;;;;;4968627;28;89755;-59
2023/04/08 01:41:34;;;;;;;;;;;;;;;;;;4983437;28;89395;-59
2023/04/08 01:44:01;;;;;;;;;;;;;;;;;;4969186;28;89648;-61
2023/04/08 01:46:26;;;;;;;;;;;;;;;;;;4968276;28;89701;-61
2023/04/08 01:48:53;;;;;;;;;;;;;;;;;;4966677;28;90690;-61
2023/04/08 01:51:18;;;;;;;;;;;;;;;;;;4967920;28;89119;-60
2023/04/08 01:53:44;;;;;;;;;;;;;;;;;;4968027;28;89606;-59
2023/04/08 01:56:11;;;;;;;;;;;;;;;;;;4967659;28;89168;-62
2023/04/08 01:58:38;;;;;;;;;;;;;;;;;;4970188;28;89032;-61
2023/04/08 02:01:05;;;;;;;;;;;;;;;;;;4963748;28;89344;-59
2023/04/08 02:03:30;;;;;;;;;;;;;;;;;;4948265;28;89468;-60
2023/04/08 02:05:56;;;;;;;;;;;;;;;;;;4964303;28;88909;-63
2023/04/08 02:08:21;;;;;;;;;;;;;;;;;;4969984;28;89513;-63
2023/04/08 02:10:46;;;;;;;;;;;;;;;;;;4967494;28;89042;-64
2023/04/08 02:13:11;;;;;;;;;;;;;;;;;;4966695;28;89757;-58
2023/04/08 02:15:40;;;;;;;;;;;;;;;;;;4966711;28;90106;-59
2023/04/08 02:18:12;;;;;;;;;;;;;;;;;;4970961;28;89613;-58
2023/04/08 02:20:42;;;;;;;;;;;;;;;;;;4968144;28;90628;-61
2023/04/08 02:23:16;;;;;;;;;;;;;;;;;;4968139;28;89837;-59
2023/04/08 02:25:43;;;;;;;;;;;;;;;;;;4968018;28;88991;-61
2023/04/08 02:28:10;;;;;;;;;;;;;;;;;;4948299;28;90225;-59
2023/04/08 02:30:36;;;;;;;;;;;;;;;;;;4948538;28;88998;-59
2023/04/08 02:33:03;;;;;;;;;;;;;;;;;;4963267;28;89817;-59
2023/04/08 02:35:28;;;;;;;;;;;;;;;;;;4966411;28;91648;-62
2023/04/08 02:37:53;;;;;;;;;;;;;;;;;;4966463;28;89703;-61
2023/04/08 02:40:26;;;;;;;;;;;;;;;;;;4969452;28;89830;-58
2023/04/08 02:42:51;;;;;;;;;;;;;;;;;;4965044;28;89562;-61
2023/04/08 02:45:17;;;;;;;;;;;;;;;;;;4966875;28;90178;-59
2023/04/08 02:47:42;;;;;;;;;;;;;;;;;;4966495;28;90095;-60
2023/04/08 02:50:07;;;;;;;;;;;;;;;;;;4966599;28;88997;-60
2023/04/08 02:52:32;;;;;;;;;;;;;;;;;;4967003;28;89686;-59
2023/04/08 02:54:58;;;;;;;;;;;;;;;;;;4966634;28;89436;-60
2023/04/08 02:57:23;;;;;;;;;;;;;;;;;;4966596;28;89394;-59
2023/04/08 02:59:48;;;;;;;;;;;;;;;;;;4966583;28;89690;-59
2023/04/08 03:02:13;;;;;;;;;;;;;;;;;;4963514;28;89269;-58
2023/04/08 03:04:39;;;;;;;;;;;;;;;;;;4967628;28;89713;-63
2023/04/08 03:07:05;;;;;;;;;;;;;;;;;;4962209;28;90161;-62
2023/04/08 03:09:30;;;;;;;;;;;;;;;;;;4948261;28;89024;-64
2023/04/08 03:11:55;;;;;;;;;;;;;;;;;;4957476;28;90722;-63
2023/04/08 03:14:21;;;;;;;;;;;;;;;;;;4967458;28;89295;-63
2023/04/08 03:16:46;;;;;;;;;;;;;;;;;;4967812;28;89593;-60
2023/04/08 03:19:11;;;;;;;;;;;;;;;;;;4970622;28;89597;-59
2023/04/08 03:21:36;;;;;;;;;;;;;;;;;;4969689;28;89332;-59
2023/04/08 03:24:01;;;;;;;;;;;;;;;;;;4969376;28;89665;-58
2023/04/08 03:26:27;;;;;;;;;;;;;;;;;;4965914;28;89151;-62
2023/04/08 03:28:53;;;;;;;;;;;;;;;;;;4966082;28;89097;-62
2023/04/08 03:31:20;;;;;;;;;;;;;;;;;;4966260;28;89654;-61
2023/04/08 03:33:45;;;;;;;;;;;;;;;;;;4964761;28;89607;-59
2023/04/08 03:36:11;;;;;;;;;;;;;;;;;;4966439;28;89816;-59
2023/04/08 03:38:36;;;;;;;;;;;;;;;;;;4965837;28;89730;-63
2023/04/08 03:41:01;;;;;;;;;;;;;;;;;;4973983;28;89649;-62
2023/04/08 03:43:26;;;;;;;;;;;;;;;;;;4966321;28;89584;-61
2023/04/08 03:45:52;;;;;;;;;;;;;;;;;;4968981;28;89624;-63
2023/04/08 03:48:17;;;;;;;;;;;;;;;;;;4966280;28;88988;-62
2023/04/08 03:50:42;;;;;;;;;;;;;;;;;;4966644;28;89564;-62
2023/04/08 03:53:10;;;;;;;;;;;;;;;;;;4966700;28;89405;-63
2023/04/08 03:55:35;;;;;;;;;;;;;;;;;;4967205;28;89112;-63
2023/04/08 03:58:00;;;;;;;;;;;;;;;;;;4966842;28;90456;-62
2023/04/08 04:00:25;;;;;;;;;;;;;;;;;;4966857;28;90674;-62
2023/04/08 04:02:51;;;;;;;;;;;;;;;;;;4966541;28;89633;-63
2023/04/08 04:05:16;;;;;;;;;;;;;;;;;;4966403;28;89594;-62
2023/04/08 04:07:41;;;;;;;;;;;;;;;;;;4968698;28;89040;-62
2023/04/08 04:10:07;;;;;;;;;;;;;;;;;;4966038;28;89706;-63
2023/04/08 04:12:32;;;;;;;;;;;;;;;;;;4964857;28;89870;-63
2023/04/08 04:14:57;;;;;;;;;;;;;;;;;;4966108;28;89629;-63
2023/04/08 04:17:22;;;;;;;;;;;;;;;;;;4966086;28;90035;-62
2023/04/08 04:19:47;;;;;;;;;;;;;;;;;;4966306;28;89591;-64
2023/04/08 04:22:13;;;;;;;;;;;;;;;;;;4964355;28;89600;-59
2023/04/08 04:24:38;;;;;;;;;;;;;;;;;;4968931;28;89704;-65
2023/04/08 04:27:03;;;;;;;;;;;;;;;;;;4986968;28;91792;-61
2023/04/08 04:29:30;;;;;;;;;;;;;;;;;;4969035;28;90037;-62
2023/04/08 04:31:55;;;;;;;;;;;;;;;;;;4968839;28;89347;-61
2023/04/08 04:34:20;;;;;;;;;;;;;;;;;;4968914;28;89886;-59
2023/04/08 04:36:46;;;;;;;;;;;;;;;;;;4969545;28;89638;-60
2023/04/08 04:39:11;;;;;;;;;;;;;;;;;;4969562;28;89236;-60
2023/04/08 04:41:39;;;;;;;;;;;;;;;;;;4968895;28;89054;-60
2023/04/08 04:44:04;;;;;;;;;;;;;;;;;;4968413;28;92226;-58
2023/04/08 04:46:29;;;;;;;;;;;;;;;;;;4969503;28;90402;-61
2023/04/08 04:48:55;;;;;;;;;;;;;;;;;;4971720;28;90013;-62
2023/04/08 04:51:20;;;;;;;;;;;;;;;;;;4968579;28;90291;-60
2023/04/08 04:53:45;;;;;;;;;;;;;;;;;;4968215;28;89080;-62
2023/04/08 04:56:11;;;;;;;;;;;;;;;;;;4967882;28;89665;-63
2023/04/08 04:58:36;;;;;;;;;;;;;;;;;;4968296;28;89351;-59
2023/04/08 05:01:01;;;;;;;;;;;;;;;;;;4968793;28;88976;-60
2023/04/08 05:03:26;;;;;;;;;;;;;;;;;;4964598;28;91031;-60
2023/04/08 05:05:52;;;;;;;;;;;;;;;;;;4968387;28;89486;-59
2023/04/08 05:08:17;;;;;;;;;;;;;;;;;;4969164;28;89711;-60
2023/04/08 05:10:43;;;;;;;;;;;;;;;;;;4971189;28;89759;-61
2023/04/08 05:13:08;;;;;;;;;;;;;;;;;;4968856;28;89309;-58
2023/04/08 05:15:33;;;;;;;;;;;;;;;;;;4968373;28;90580;-63
2023/04/08 05:17:58;;;;;;;;;;;;;;;;;;4968644;28;89471;-63
2023/04/08 05:20:23;;;;;;;;;;;;;;;;;;4967433;28;89029;-63
2023/04/08 05:22:49;;;;;;;;;;;;;;;;;;4968506;28;90287;-64
2023/04/08 05:25:14;;;;;;;;;;;;;;;;;;4960529;28;89834;-62
2023/04/08 05:27:39;;;;;;;;;;;;;;;;;;4960837;28;90142;-64
2023/04/08 05:30:05;;;;;;;;;;;;;;;;;;4959453;28;89158;-58
2023/04/08 05:32:30;;;;;;;;;;;;;;;;;;4960265;28;90389;-58
2023/04/08 05:34:55;;;;;;;;;;;;;;;;;;4952752;28;89672;-59
2023/04/08 05:37:21;;;;;;;;;;;;;;;;;;4960895;28;89418;-57
2023/04/08 05:39:46;;;;;;;;;;;;;;;;;;4955818;28;89301;-61
2023/04/08 05:42:12;;;;;;;;;;;;;;;;;;4952033;28;89707;-60
2023/04/08 05:44:40;;;;;;;;;;;;;;;;;;4963438;28;89655;-63
2023/04/08 05:47:05;;;;;;;;;;;;;;;;;;4959075;28;89532;-61
2023/04/08 05:49:30;;;;;;;;;;;;;;;;;;4961558;28;89743;-62
2023/04/08 05:51:55;;;;;;;;;;;;;;;;;;4960207;28;89363;-61
2023/04/08 05:54:21;;;;;;;;;;;;;;;;;;4967414;28;90336;-60
2023/04/08 05:56:47;;;;;;;;;;;;;;;;;;4964122;28;89199;-64
2023/04/08 05:59:12;;;;;;;;;;;;;;;;;;4963285;28;91022;-64
2023/04/08 06:01:38;;;;;;;;;;;;;;;;;;4966335;28;89753;-63
2023/04/08 06:04:03;;;;;;;;;;;;;;;;;;4964397;28;90371;-62
2023/04/08 06:06:28;;;;;;;;;;;;;;;;;;4965881;28;88942;-64
2023/04/08 06:08:53;;;;;;;;;;;;;;;;;;4965548;28;89594;-64
2023/04/08 06:11:19;;;;;;;;;;;;;;;;;;4965124;28;90214;-63
2023/04/08 06:13:44;;;;;;;;;;;;;;;;;;4965486;28;88927;-63
2023/04/08 06:16:13;;;;;;;;;;;;;;;;;;4968347;28;89195;-63
2023/04/08 06:18:39;;;;;;;;;;;;;;;;;;4964605;28;89174;-63
2023/04/08 06:21:05;;;;;;;;;;;;;;;;;;4965326;28;90925;-63
2023/04/08 06:23:30;;;;;;;;;;;;;;;;;;4960750;28;90873;-64
2023/04/08 06:25:56;;;;;;;;;;;;;;;;;;4964862;28;90710;-64
2023/04/08 06:28:21;;;;;;;;;;;;;;;;;;4956775;28;89919;-63
2023/04/08 06:30:46;;;;;;;;;;;;;;;;;;4963668;28;90712;-63
2023/04/08 06:33:11;;;;;;;;;;;;;;;;;;4957309;28;89663;-60
2023/04/08 06:35:37;;;;;;;;;;;;;;;;;;4967227;28;89754;-60
2023/04/08 06:38:02;;;;;;;;;;;;;;;;;;4960559;28;89407;-59
2023/04/08 06:40:28;;;;;;;;;;;;;;;;;;4959316;28;90652;-62
2023/04/08 06:42:53;;;;;;;;;;;;;;;;;;4959078;28;90086;-58
2023/04/08 06:45:18;;;;;;;;;;;;;;;;;;4964001;28;89719;-59
2023/04/08 06:47:44;;;;;;;;;;;;;;;;;;4964804;28;90056;-59
2023/04/08 06:50:09;;;;;;;;;;;;;;;;;;4965344;28;90279;-58
2023/04/08 06:52:34;;;;;;;;;;;;;;;;;;4963168;28;90885;-58
2023/04/08 06:55:00;;;;;;;;;;;;;;;;;;4962976;28;90718;-57
2023/04/08 06:57:25;;;;;;;;;;;;;;;;;;4966779;28;89187;-57
2023/04/08 06:59:51;;;;;;;;;;;;;;;;;;4964298;28;90491;-58
2023/04/08 07:02:17;;;;;;;;;;;;;;;;;;4963029;28;90412;-56
2023/04/08 07:04:42;;;;;;;;;;;;;;;;;;4962916;28;89763;-60
2023/04/08 07:07:08;;;;;;;;;;;;;;;;;;4964427;28;90093;-64
2023/04/08 07:09:33;;;;;;;;;;;;;;;;;;4964367;28;89526;-59
2023/04/08 07:11:58;;;;;;;;;;;;;;;;;;4965099;28;89737;-58
2023/04/08 07:14:24;;;;;;;;;;;;;;;;;;4964504;28;89968;-58
2023/04/08 07:16:49;;;;;;;;;;;;;;;;;;4961499;28;89401;-59
2023/04/08 07:19:15;;;;;;;;;;;;;;;;;;4967347;28;89600;-59
2023/04/08 07:21:40;;;;;;;;;;;;;;;;;;4964723;28;89226;-58
2023/04/08 07:24:06;;;;;;;;;;;;;;;;;;4964588;28;89115;-59
2023/04/08 07:26:31;;;;;;;;;;;;;;;;;;4964086;28;90465;-61
2023/04/08 07:28:56;;;;;;;;;;;;;;;;;;4961382;28;91889;-62
2023/04/08 07:31:22;;;;;;;;;;;;;;;;;;4964100;28;89596;-62
2023/04/08 07:33:47;;;;;;;;;;;;;;;;;;4963943;28;89785;-63
2023/04/08 07:36:12;;;;;;;;;;;;;;;;;;4964598;28;89397;-63
2023/04/08 07:38:38;;;;;;;;;;;;;;;;;;4964324;28;90191;-57
2023/04/08 07:41:03;;;;;;;;;;;;;;;;;;4966721;28;89770;-59
2023/04/08 07:43:33;;;;;;;;;;;;;;;;;;4965002;28;89683;-60
2023/04/08 07:46:02;;;;;;;;;;;;;;;;;;4963803;28;89656;-57
2023/04/08 07:48:27;;;;;;;;;;;;;;;;;;4962892;28;89723;-58
2023/04/08 07:50:52;;;;;;;;;;;;;;;;;;4964683;28;89345;-61
2023/04/08 07:53:17;;;;;;;;;;;;;;;;;;4964662;28;89578;-59
2023/04/08 07:55:43;;;;;;;;;;;;;;;;;;4964917;28;89659;-58
2023/04/08 07:58:08;;;;;;;;;;;;;;;;;;4966513;28;89157;-59
2023/04/08 08:00:33;;;;;;;;;;;;;;;;;;4968511;28;89603;-59
2023/04/08 08:02:58;;;;;;;;;;;;;;;;;;4970887;28;89271;-61
2023/04/08 08:05:24;;;;;;;;;;;;;;;;;;4967547;28;89737;-62
2023/04/08 08:07:49;;;;;;;;;;;;;;;;;;4968375;28;89464;-64
2023/04/08 08:10:15;;;;;;;;;;;;;;;;;;4967980;28;89905;-65
2023/04/08 08:12:40;;;;;;;;;;;;;;;;;;4969025;28;90668;-63
2023/04/08 08:15:06;;;;;;;;;;;;;;;;;;4969680;28;90118;-62
2023/04/08 08:17:32;;;;;;;;;;;;;;;;;;4967915;28;89102;-62
2023/04/08 08:19:57;;;;;;;;;;;;;;;;;;4968455;28;90693;-65
2023/04/08 08:22:23;;;;;;;;;;;;;;;;;;4970628;28;89627;-64
2023/04/08 08:24:48;;;;;;;;;;;;;;;;;;4968210;28;89705;-63
2023/04/08 08:27:13;;;;;;;;;;;;;;;;;;4967406;28;89361;-63
2023/04/08 08:29:38;;;;;;;;;;;;;;;;;;4967484;28;89058;-62
2023/04/08 08:32:04;;;;;;;;;;;;;;;;;;4968026;28;90026;-64
2023/04/08 08:34:29;;;;;;;;;;;;;;;;;;4966331;28;89718;-58
2023/04/08 08:36:54;;;;;;;;;;;;;;;;;;4954640;28;90587;-59
2023/04/08 08:39:20;;;;;;;;;;;;;;;;;;4967744;28;89965;-65
2023/04/08 08:41:45;;;;;;;;;;;;;;;;;;4966114;28;90532;-65
2023/04/08 08:44:11;;;;;;;;;;;;;;;;;;4966858;28;90706;-62
2023/04/08 08:46:40;;;;;;;;;;;;;;;;;;4966170;28;90572;-61
2023/04/08 08:49:05;;;;;;;;;;;;;;;;;;4959186;28;89030;-59
2023/04/08 08:51:31;;;;;;;;;;;;;;;;;;4962188;28;90874;-61
2023/04/08 08:53:56;;;;;;;;;;;;;;;;;;4965848;28;89961;-63
2023/04/08 08:56:21;;;;;;;;;;;;;;;;;;4962738;28;89787;-61
2023/04/08 08:58:47;;;;;;;;;;;;;;;;;;4961552;28;90695;-61
2023/04/08 09:01:30;;;;;;;;;;;;;;;;;;4957209;28;89186;-64
2023/04/08 09:04:16;;;;;;;;;;;;;;;;;;4959912;28;89401;-61
2023/04/08 09:06:42;;;;;;;;;;;;;;;;;;4958491;28;90794;-63
2023/04/08 09:09:10;;;;;;;;;;;;;;;;;;4963278;28;89462;-60
2023/04/08 09:11:37;;;;;;;;;;;;;;;;;;4959990;28;90645;-58
2023/04/08 09:14:03;;;;;;;;;;;;;;;;;;4960666;28;90591;-59
2023/04/08 09:16:29;;;;;;;;;;;;;;;;;;4954965;28;89018;-63
2023/04/08 09:19:07;;;;;;;;;;;;;;;;;;4958539;28;89347;-61
2023/04/08 09:21:32;;;;;;;;;;;;;;;;;;4957070;28;89483;-61
2023/04/08 09:23:57;;;;;;;;;;;;;;;;;;4965669;28;89087;-61
2023/04/08 09:26:23;;;;;;;;;;;;;;;;;;4961276;28;90738;-63
2023/04/08 09:28:57;;;;;;;;;;;;;;;;;;4958114;28;89224;-64
2023/04/08 09:31:27;;;;;;;;;;;;;;;;;;4958037;28;89642;-59
2023/04/08 09:33:53;;;;;;;;;;;;;;;;;;4958855;28;89389;-62
2023/04/08 09:36:18;;;;;;;;;;;;;;;;;;4958325;28;89444;-63
2023/04/08 09:38:43;;;;;;;;;;;;;;;;;;4963617;28;92764;-64
2023/04/08 09:41:11;;;;;;;;;;;;;;;;;;4961213;28;90344;-62
2023/04/08 09:43:41;;;;;;;;;;;;;;;;;;4960836;28;89466;-62
2023/04/08 09:46:10;;;;;;;;;;;;;;;;;;4958754;28;90694;-65
2023/04/08 09:48:38;;;;;;;;;;;;;;;;;;4962401;28;90508;-60
2023/04/08 09:51:04;;;;;;;;;;;;;;;;;;4960442;28;88994;-58
2023/04/08 09:53:33;;;;;;;;;;;;;;;;;;4960764;28;89498;-58
2023/04/08 09:55:59;;;;;;;;;;;;;;;;;;4961491;28;89643;-63
2023/04/08 09:58:28;;;;;;;;;;;;;;;;;;4964436;28;90612;-60
2023/04/08 10:00:53;;;;;;;;;;;;;;;;;;4958682;28;90198;-59
2023/04/08 10:03:27;;;;;;;;;;;;;;;;;;4958760;28;89079;-58
2023/04/08 10:05:53;;;;;;;;;;;;;;;;;;4961348;28;90672;-61
2023/04/08 10:08:18;;;;;;;;;;;;;;;;;;4959309;28;90781;-59
2023/04/08 10:10:44;;;;;;;;;;;;;;;;;;4962364;28;89391;-59
2023/04/08 10:13:09;;;;;;;;;;;;;;;;;;4967621;28;89165;-59
2023/04/08 10:15:36;;;;;;;;;;;;;;;;;;4964659;28;89657;-57
2023/04/08 10:18:05;;;;;;;;;;;;;;;;;;4956955;28;89100;-58
2023/04/08 10:20:33;;;;;;;;;;;;;;;;;;4955291;28;90991;-60
2023/04/08 10:22:59;;;;;;;;;;;;;;;;;;4958252;28;89488;-60
2023/04/08 10:25:30;;;;;;;;;;;;;;;;;;4960319;28;89766;-63
2023/04/08 10:27:55;;;;;;;;;;;;;;;;;;4956020;28;90162;-62
2023/04/08 10:30:27;;;;;;;;;;;;;;;;;;4964745;28;89396;-64
2023/04/08 10:32:55;;;;;;;;;;;;;;;;;;4961384;28;89983;-65
2023/04/08 10:35:30;;;;;;;;;;;;;;;;;;4963387;28;89094;-61
2023/04/08 10:37:55;;;;;;;;;;;;;;;;;;4960233;28;90735;-62
2023/04/08 10:40:20;;;;;;;;;;;;;;;;;;4969577;28;90632;-63
2023/04/08 10:42:45;;;;;;;;;;;;;;;;;;4964632;28;89436;-59
2023/04/08 10:45:16;;;;;;;;;;;;;;;;;;4964525;28;89694;-63
2023/04/08 10:47:41;;;;;;;;;;;;;;;;;;4959165;28;90564;-64
2023/04/08 10:50:13;;;;;;;;;;;;;;;;;;4959563;28;89738;-59
2023/04/08 10:52:52;;;;;;;;;;;;;;;;;;4955267;28;89786;-64
2023/04/08 10:55:22;;;;;;;;;;;;;;;;;;4965018;28;91883;-65
2023/04/08 10:57:48;;;;;;;;;;;;;;;;;;4955952;28;91141;-59
2023/04/08 11:00:16;;;;;;;;;;;;;;;;;;4957917;28;90270;-62
2023/04/08 11:02:42;;;;;;;;;;;;;;;;;;4961273;28;89399;-59
2023/04/08 11:05:09;;;;;;;;;;;;;;;;;;4961095;28;89817;-62
2023/04/08 11:07:38;;;;;;;;;;;;;;;;;;4959517;28;89775;-61
2023/04/08 11:10:04;;;;;;;;;;;;;;;;;;4960018;28;90117;-61
2023/04/08 11:12:31;;;;;;;;;;;;;;;;;;4960542;28;89917;-68
2023/04/08 11:14:56;;;;;;;;;;;;;;;;;;4962088;28;90102;-60
2023/04/08 11:17:21;;;;;;;;;;;;;;;;;;4961545;28;89618;-64
2023/04/08 11:19:47;;;;;;;;;;;;;;;;;;4960614;28;89982;-60
2023/04/08 11:22:12;;;;;;;;;;;;;;;;;;4962170;28;90530;-61
2023/04/08 11:24:37;;;;;;;;;;;;;;;;;;4960281;28;90836;-58
2023/04/08 11:27:05;;;;;;;;;;;;;;;;;;4958895;28;89214;-58
2023/04/08 11:29:31;;;;;;;;;;;;;;;;;;4965213;28;89437;-61
2023/04/08 11:31:56;;;;;;;;;;;;;;;;;;4961726;28;89740;-60
2023/04/08 11:34:23;;;;;;;;;;;;;;;;;;4957182;28;89663;-59
2023/04/08 11:36:48;;;;;;;;;;;;;;;;;;4962876;28;89488;-60
2023/04/08 11:39:14;;;;;;;;;;;;;;;;;;4964457;28;89782;-63
2023/04/08 11:41:40;;;;;;;;;;;;;;;;;;4958356;28;89459;-64
2023/04/08 11:44:05;;;;;;;;;;;;;;;;;;4968411;28;90399;-62
2023/04/08 11:46:31;;;;;;;;;;;;;;;;;;4956902;28;89545;-59
2023/04/08 11:48:57;;;;;;;;;;;;;;;;;;4963955;28;89178;-63
2023/04/08 11:51:22;;;;;;;;;;;;;;;;;;4963945;28;89616;-61
2023/04/08 11:53:50;;;;;;;;;;;;;;;;;;4951237;28;91535;-62
2023/04/08 11:56:17;;;;;;;;;;;;;;;;;;4956606;28;90450;-62
2023/04/08 11:58:42;;;;;;;;;;;;;;;;;;4964573;28;91036;-65
2023/04/08 12:01:07;;;;;;;;;;;;;;;;;;4965758;28;89636;-63
2023/04/08 12:03:32;;;;;;;;;;;;;;;;;;4962818;28;89683;-59
2023/04/08 12:05:58;;;;;;;;;;;;;;;;;;4963283;28;90083;-59
2023/04/08 12:08:23;;;;;;;;;;;;;;;;;;4959355;28;89465;-61
2023/04/08 12:10:49;;;;;;;;;;;;;;;;;;4958783;28;89735;-58
2023/04/08 12:13:14;;;;;;;;;;;;;;;;;;4962376;28;89571;-58
2023/04/08 12:15:39;;;;;;;;;;;;;;;;;;4960205;28;89245;-60
2023/04/08 12:18:05;;;;;;;;;;;;;;;;;;4958480;28;89720;-59
2023/04/08 12:20:30;;;;;;;;;;;;;;;;;;4959393;28;90963;-61
2023/04/08 12:22:55;;;;;;;;;;;;;;;;;;4961616;28;90284;-58
2023/04/08 12:25:20;;;;;;;;;;;;;;;;;;4968139;28;89903;-59
2023/04/08 12:27:46;;;;;;;;;;;;;;;;;;4963057;28;90928;-59
2023/04/08 12:30:11;;;;;;;;;;;;;;;;;;4958598;28;89064;-65
2023/04/08 12:32:36;;;;;;;;;;;;;;;;;;4958586;28;90207;-59
2023/04/08 12:35:02;;;;;;;;;;;;;;;;;;4958536;28;89402;-58
2023/04/08 12:37:27;;;;;;;;;;;;;;;;;;4960108;28;89974;-58
2023/04/08 12:39:52;;;;;;;;;;;;;;;;;;4962844;28;89569;-59
2023/04/08 12:42:17;;;;;;;;;;;;;;;;;;4963173;28;89600;-61
2023/04/08 12:44:43;;;;;;;;;;;;;;;;;;4965704;28;90766;-60
2023/04/08 12:47:08;;;;;;;;;;;;;;;;;;4956865;28;89739;-66
2023/04/08 12:49:33;;;;;;;;;;;;;;;;;;4958376;28;90668;-62
2023/04/08 12:51:58;;;;;;;;;;;;;;;;;;4963229;28;89520;-63
2023/04/08 12:54:24;;;;;;;;;;;;;;;;;;4957016;28;89439;-64
2023/04/08 12:56:49;;;;;;;;;;;;;;;;;;4965231;28;89635;-64
2023/04/08 12:59:14;;;;;;;;;;;;;;;;;;4962027;28;90054;-64
2023/04/08 13:01:40;;;;;;;;;;;;;;;;;;4962471;28;89698;-64
2023/04/08 13:04:05;;;;;;;;;;;;;;;;;;4962357;28;94018;-61
2023/04/08 13:06:30;;;;;;;;;;;;;;;;;;4962218;28;90251;-64
2023/04/08 13:08:56;;;;;;;;;;;;;;;;;;4960846;28;90759;-60
2023/04/08 13:11:21;;;;;;;;;;;;;;;;;;4959920;28;90094;-64
2023/04/08 13:13:46;;;;;;;;;;;;;;;;;;4959470;28;89092;-64
2023/04/08 13:16:13;;;;;;;;;;;;;;;;;;4962625;28;89669;-63
2023/04/08 13:18:38;;;;;;;;;;;;;;;;;;4958775;28;89409;-63
2023/04/08 13:21:03;;;;;;;;;;;;;;;;;;4956981;28;89333;-64
2023/04/08 13:23:29;;;;;;;;;;;;;;;;;;4955627;28;90183;-63
2023/04/08 13:25:54;;;;;;;;;;;;;;;;;;4960805;28;90873;-64
2023/04/08 13:28:19;;;;;;;;;;;;;;;;;;4954355;28;89728;-65
2023/04/08 13:30:44;;;;;;;;;;;;;;;;;;4962619;28;91863;-60
2023/04/08 13:33:10;;;;;;;;;;;;;;;;;;4953820;28;89623;-63
2023/04/08 13:35:35;;;;;;;;;;;;;;;;;;4957444;28;91173;-62
2023/04/08 13:38:00;;;;;;;;;;;;;;;;;;4957975;28;90386;-62
2023/04/08 13:40:26;;;;;;;;;;;;;;;;;;4961811;28;90744;-64
2023/04/08 13:42:52;;;;;;;;;;;;;;;;;;4966864;28;90928;-64
2023/04/08 13:45:18;;;;;;;;;;;;;;;;;;4962469;28;89598;-65
2023/04/08 13:47:43;;;;;;;;;;;;;;;;;;4962589;28;89424;-62
2023/04/08 13:50:08;;;;;;;;;;;;;;;;;;4960067;28;89433;-65
2023/04/08 13:52:34;;;;;;;;;;;;;;;;;;4962097;28;88991;-59
2023/04/08 13:54:59;;;;;;;;;;;;;;;;;;4958676;28;89735;-62
2023/04/08 13:57:25;;;;;;;;;;;;;;;;;;4964824;28;90279;-64
2023/04/08 13:59:50;;;;;;;;;;;;;;;;;;4957056;28;89036;-63
2023/04/08 14:02:15;;;;;;;;;;;;;;;;;;4956573;28;89829;-59
2023/04/08 14:04:42;;;;;;;;;;;;;;;;;;4959035;28;89853;-64
2023/04/08 14:07:07;;;;;;;;;;;;;;;;;;4961521;28;89776;-65
2023/04/08 14:09:32;;;;;;;;;;;;;;;;;;4959823;28;90216;-64
2023/04/08 14:11:57;;;;;;;;;;;;;;;;;;4960824;28;89205;-66
2023/04/08 14:14:23;;;;;;;;;;;;;;;;;;4956890;28;89768;-60
2023/04/08 14:16:48;;;;;;;;;;;;;;;;;;4962701;28;89399;-62
2023/04/08 14:19:13;;;;;;;;;;;;;;;;;;4972057;28;89553;-60
2023/04/08 14:21:38;;;;;;;;;;;;;;;;;;4961667;28;89419;-63
2023/04/08 14:24:04;;;;;;;;;;;;;;;;;;4958337;28;90017;-62
2023/04/08 14:26:32;;;;;;;;;;;;;;;;;;4959645;28;89774;-65
2023/04/08 14:28:57;;;;;;;;;;;;;;;;;;4957428;28;89466;-64
2023/04/08 14:31:22;;;;;;;;;;;;;;;;;;4967935;28;89768;-60
2023/04/08 14:33:47;;;;;;;;;;;;;;;;;;4960913;28;90331;-59
2023/04/08 14:36:12;;;;;;;;;;;;;;;;;;4959914;28;91498;-59
2023/04/08 14:38:38;;;;;;;;;;;;;;;;;;4955719;28;89663;-62
2023/04/08 14:41:03;;;;;;;;;;;;;;;;;;4957476;28;90754;-62
2023/04/08 14:43:28;;;;;;;;;;;;;;;;;;4962326;28;89256;-60
2023/04/08 14:45:53;;;;;;;;;;;;;;;;;;4962772;28;89041;-60
2023/04/08 14:48:19;;;;;;;;;;;;;;;;;;4960629;28;89904;-59
2023/04/08 14:50:44;;;;;;;;;;;;;;;;;;4964307;28;89650;-63
2023/04/08 14:53:10;;;;;;;;;;;;;;;;;;4973161;28;90640;-59
2023/04/08 14:55:35;;;;;;;;;;;;;;;;;;4964038;28;92208;-64
2023/04/08 14:58:01;;;;;;;;;;;;;;;;;;4957596;28;89190;-59
2023/04/08 15:00:26;;;;;;;;;;;;;;;;;;4956139;28;89718;-58
2023/04/08 15:02:51;;;;;;;;;;;;;;;;;;4958127;28;90410;-59
2023/04/08 15:05:17;;;;;;;;;;;;;;;;;;4961210;28;89234;-67
2023/04/08 15:07:42;;;;;;;;;;;;;;;;;;4960075;28;89716;-67
2023/04/08 15:10:08;;;;;;;;;;;;;;;;;;4961387;28;89043;-66
2023/04/08 15:12:33;;;;;;;;;;;;;;;;;;4960700;28;89092;-67
2023/04/08 15:14:58;;;;;;;;;;;;;;;;;;4961387;28;89491;-67
2023/04/08 15:17:26;;;;;;;;;;;;;;;;;;4962501;28;89688;-69
2023/04/08 15:19:52;;;;;;;;;;;;;;;;;;4961007;28;90628;-62
2023/04/08 15:22:17;;;;;;;;;;;;;;;;;;4964015;28;89309;-63
2023/04/08 15:24:42;;;;;;;;;;;;;;;;;;4964082;28;90658;-61
2023/04/08 15:27:07;;;;;;;;;;;;;;;;;;4963393;28;89656;-65
2023/04/08 15:29:33;;;;;;;;;;;;;;;;;;4959907;28;89273;-68
2023/04/08 15:31:58;;;;;;;;;;;;;;;;;;4962982;28;89023;-68
2023/04/08 15:34:23;;;;;;;;;;;;;;;;;;4965516;28;90664;-66
2023/04/08 15:36:48;;;;;;;;;;;;;;;;;;4966248;28;89068;-64
2023/04/08 15:39:14;;;;;;;;;;;;;;;;;;4965581;28;90370;-67
2023/04/08 15:41:39;;;;;;;;;;;;;;;;;;4963928;28;89955;-64
2023/04/08 15:44:04;;;;;;;;;;;;;;;;;;4962083;28;88943;-65
2023/04/08 15:46:29;;;;;;;;;;;;;;;;;;4963034;28;91048;-63
2023/04/08 15:48:55;;;;;;;;;;;;;;;;;;4966280;28;90142;-61
2023/04/08 15:51:20;;;;;;;;;;;;;;;;;;4959089;28;89027;-68
2023/04/08 15:53:45;;;;;;;;;;;;;;;;;;4964124;28;89641;-67
2023/04/08 15:56:11;;;;;;;;;;;;;;;;;;4966146;28;90367;-67
2023/04/08 15:58:36;;;;;;;;;;;;;;;;;;4963279;28;90315;-69
2023/04/08 16:01:02;;;;;;;;;;;;;;;;;;4961133;28;89874;-66
2023/04/08 16:03:27;;;;;;;;;;;;;;;;;;4962636;28;89457;-66
2023/04/08 16:05:52;;;;;;;;;;;;;;;;;;4955465;28;89718;-66
2023/04/08 16:08:17;;;;;;;;;;;;;;;;;;4953731;28;89993;-68
2023/04/08 16:10:42;;;;;;;;;;;;;;;;;;4958782;28;89183;-63
2023/04/08 16:13:08;;;;;;;;;;;;;;;;;;4960451;28;89694;-62
2023/04/08 16:15:33;;;;;;;;;;;;;;;;;;4956979;28;90053;-66
2023/04/08 16:17:59;;;;;;;;;;;;;;;;;;4964050;28;89743;-65
2023/04/08 16:20:24;;;;;;;;;;;;;;;;;;4958938;28;89871;-66
2023/04/08 16:22:49;;;;;;;;;;;;;;;;;;4964178;28;89975;-67
2023/04/08 16:25:14;;;;;;;;;;;;;;;;;;4964881;28;90556;-65
2023/04/08 16:27:40;;;;;;;;;;;;;;;;;;4964714;28;89364;-64
2023/04/08 16:30:05;;;;;;;;;;;;;;;;;;4966462;28;89100;-65
2023/04/08 16:32:30;;;;;;;;;;;;;;;;;;4965378;28;89649;-66
2023/04/08 16:34:56;;;;;;;;;;;;;;;;;;4966565;28;89332;-61
2023/04/08 16:37:21;;;;;;;;;;;;;;;;;;4966221;28;89565;-65